createdAt,value
2023-04-19T00:00:40.065Z,0
2023-04-19T00:01:56.000Z,0
2023-04-19T00:03:12.660Z,0
2023-04-19T00:04:28.969Z,0
2023-04-19T00:05:45.242Z,0
2023-04-19T00:07:01.532Z,0
2023-04-19T00:08:17.834Z,0
2023-04-19T00:09:34.130Z,0
2023-04-19T00:10:50.425Z,0
2023-04-19T00:12:06.718Z,0
2023-04-19T00:13:23.000Z,0
2023-04-19T00:14:39.309Z,0
2023-04-19T00:15:55.586Z,0
2023-04-19T00:17:10.915Z,0
2023-04-19T00:18:27.191Z,0
2023-04-19T00:19:43.485Z,0
2023-04-19T00:20:59.790Z,0
2023-04-19T00:22:16.079Z,0
2023-04-19T00:23:32.372Z,0
2023-04-19T00:24:48.660Z,0
2023-04-19T00:26:04.983Z,0
2023-04-19T00:27:21.254Z,0
2023-04-19T00:28:37.546Z,0
2023-04-19T00:29:53.845Z,0
2023-04-19T00:31:10.151Z,0
2023-04-19T00:32:26.423Z,0
2023-04-19T00:33:41.741Z,0
2023-04-19T00:34:58.037Z,0
2023-04-19T00:36:14.331Z,0
2023-04-19T00:37:30.620Z,0
2023-04-19T00:38:46.912Z,0
2023-04-19T00:40:03.211Z,0
2023-04-19T00:41:19.499Z,0
2023-04-19T00:42:35.805Z,0
2023-04-19T00:43:52.100Z,0
2023-04-19T00:45:08.380Z,0
2023-04-19T00:46:24.690Z,0
2023-04-19T00:47:40.987Z,0
2023-04-19T00:48:57.000Z,0
2023-04-19T00:50:12.589Z,0
2023-04-19T00:51:28.881Z,0
2023-04-19T00:52:45.187Z,0
2023-04-19T00:54:01.477Z,0
2023-04-19T00:55:17.781Z,0
2023-04-19T00:56:34.074Z,0
2023-04-19T00:57:50.340Z,0
2023-04-19T00:59:06.643Z,0
2023-04-19T01:00:22.948Z,0
2023-04-19T01:01:39.236Z,0
2023-04-19T01:02:55.537Z,0
2023-04-19T01:04:11.804Z,0
2023-04-19T01:05:28.106Z,0
2023-04-19T01:06:43.439Z,0
2023-04-19T01:07:59.711Z,0
2023-04-19T01:09:15.996Z,0
2023-04-19T01:10:32.307Z,0
2023-04-19T01:11:48.605Z,0
2023-04-19T01:13:04.894Z,0
2023-04-19T01:14:21.191Z,0
2023-04-19T01:15:37.475Z,0
2023-04-19T01:16:53.767Z,0
2023-04-19T01:18:10.071Z,0
2023-04-19T01:19:26.358Z,0
2023-04-19T01:20:42.666Z,0
2023-04-19T01:21:58.956Z,0
2023-04-19T01:23:14.247Z,0
2023-04-19T01:24:30.549Z,0
2023-04-19T01:25:46.837Z,0
2023-04-19T01:27:03.144Z,0
2023-04-19T01:28:19.423Z,0
2023-04-19T01:29:35.717Z,0
2023-04-19T01:30:52.012Z,0
2023-04-19T01:32:08.328Z,0
2023-04-19T01:33:24.605Z,0
2023-04-19T01:34:40.908Z,0
2023-04-19T01:35:57.000Z,0
2023-04-19T01:37:13.484Z,0
2023-04-19T01:38:29.805Z,0
2023-04-19T01:39:45.090Z,0
2023-04-19T01:41:01.378Z,0
2023-04-19T01:42:17.695Z,0
2023-04-19T01:43:33.966Z,0
2023-04-19T01:44:50.262Z,0
2023-04-19T01:46:06.566Z,0
2023-04-19T01:47:22.865Z,0
2023-04-19T01:48:39.142Z,0
2023-04-19T01:49:55.454Z,0
2023-04-19T01:51:11.742Z,0
2023-04-19T01:52:28.031Z,0
2023-04-19T01:53:44.347Z,0
2023-04-19T01:55:00.614Z,0
2023-04-19T01:56:15.946Z,0
2023-04-19T01:57:32.222Z,0
2023-04-19T01:58:48.517Z,0
2023-04-19T02:00:04.817Z,0
2023-04-19T02:01:21.096Z,0
2023-04-19T02:02:37.000Z,0
2023-04-19T02:03:53.700Z,0
2023-04-19T02:05:09.997Z,0
2023-04-19T02:06:26.284Z,0
2023-04-19T02:07:42.590Z,0
2023-04-19T02:08:58.883Z,0
2023-04-19T02:10:15.156Z,0
2023-04-19T02:11:31.471Z,0
2023-04-19T02:12:46.776Z,0
2023-04-19T02:14:03.055Z,0
2023-04-19T02:15:19.360Z,0
2023-04-19T02:16:35.645Z,0
2023-04-19T02:17:51.943Z,0
2023-04-19T02:19:08.243Z,0
2023-04-19T02:20:24.521Z,0
2023-04-19T02:21:40.821Z,0
2023-04-19T02:22:57.118Z,0
2023-04-19T02:24:13.000Z,0
2023-04-19T02:25:29.700Z,0
2023-04-19T02:26:45.990Z,0
2023-04-19T02:28:02.296Z,0
2023-04-19T02:29:17.611Z,0
2023-04-19T02:30:33.894Z,0
2023-04-19T02:31:50.195Z,0
2023-04-19T02:33:06.492Z,0
2023-04-19T02:34:22.781Z,0
2023-04-19T02:35:39.076Z,0
2023-04-19T02:36:55.363Z,0
2023-04-19T02:38:11.662Z,0
2023-04-19T02:39:27.964Z,0
2023-04-19T02:40:44.000Z,0
2023-04-19T02:42:00.000Z,0
2023-04-19T02:43:16.825Z,0
2023-04-19T02:44:33.130Z,0
2023-04-19T02:45:48.441Z,0
2023-04-19T02:47:04.732Z,0
2023-04-19T02:48:21.032Z,0
2023-04-19T02:49:37.311Z,0
2023-04-19T02:50:53.000Z,0
2023-04-19T02:52:09.897Z,0
2023-04-19T02:53:25.222Z,0
2023-04-19T02:54:41.519Z,0
2023-04-19T02:55:57.805Z,0
2023-04-19T02:57:14.103Z,0
2023-04-19T02:58:30.397Z,0
2023-04-19T02:59:46.683Z,0
2023-04-19T03:01:02.988Z,0
2023-04-19T03:02:19.281Z,0
2023-04-19T03:03:35.572Z,0
2023-04-19T03:04:51.873Z,0
2023-04-19T03:06:08.168Z,0
2023-04-19T03:07:24.466Z,0
2023-04-19T03:08:40.746Z,0
2023-04-19T03:09:56.063Z,0
2023-04-19T03:11:12.350Z,0
2023-04-19T03:12:28.652Z,0
2023-04-19T03:13:44.935Z,0
2023-04-19T03:15:01.221Z,0
2023-04-19T03:16:17.518Z,0
2023-04-19T03:17:33.815Z,0
2023-04-19T03:18:50.106Z,0
2023-04-19T03:20:06.401Z,0
2023-04-19T03:21:22.701Z,0
2023-04-19T03:22:38.992Z,0
2023-04-19T03:23:55.283Z,0
2023-04-19T03:25:11.586Z,0
2023-04-19T03:26:26.887Z,0
2023-04-19T03:27:43.182Z,0
2023-04-19T03:28:59.000Z,0
2023-04-19T03:30:15.779Z,0
2023-04-19T03:31:32.064Z,0
2023-04-19T03:32:48.355Z,0
2023-04-19T03:34:04.668Z,0
2023-04-19T03:35:20.947Z,0
2023-04-19T03:36:37.247Z,0
2023-04-19T03:37:53.531Z,0
2023-04-19T03:39:09.837Z,0
2023-04-19T03:40:26.113Z,0
2023-04-19T03:41:42.000Z,0
2023-04-19T03:42:57.731Z,0
2023-04-19T03:44:14.020Z,0
2023-04-19T03:45:30.321Z,0
2023-04-19T03:46:46.602Z,0
2023-04-19T03:48:02.907Z,0
2023-04-19T03:49:19.149Z,1
2023-04-19T03:50:35.426Z,0
2023-04-19T03:51:51.695Z,1
2023-04-19T03:53:07.917Z,1
2023-04-19T03:54:24.000Z,0
2023-04-19T03:55:40.515Z,0
2023-04-19T03:56:56.803Z,0
2023-04-19T03:58:13.114Z,0
2023-04-19T03:59:28.372Z,1
2023-04-19T04:00:44.665Z,0
2023-04-19T04:02:00.908Z,2
2023-04-19T04:03:17.146Z,1
2023-04-19T04:04:33.389Z,1
2023-04-19T04:05:49.632Z,1
2023-04-19T04:07:05.880Z,2
2023-04-19T04:08:22.104Z,1
2023-04-19T04:09:38.343Z,5
2023-04-19T04:10:54.584Z,5
2023-04-19T04:12:10.837Z,5
2023-04-19T04:13:27.072Z,4
2023-04-19T04:14:43.318Z,3
2023-04-19T04:15:58.561Z,2
2023-04-19T04:17:14.000Z,1
2023-04-19T04:18:31.051Z,2
2023-04-19T04:19:47.286Z,3
2023-04-19T04:21:03.531Z,4
2023-04-19T04:22:19.783Z,4
2023-04-19T04:23:36.025Z,6
2023-04-19T04:24:52.247Z,8
2023-04-19T04:26:08.487Z,9
2023-04-19T04:27:24.720Z,15
2023-04-19T04:28:40.975Z,19
2023-04-19T04:29:57.212Z,18
2023-04-19T04:31:13.450Z,20
2023-04-19T04:32:28.695Z,31
2023-04-19T04:33:44.935Z,31
2023-04-19T04:35:01.183Z,44
2023-04-19T04:36:17.419Z,48
2023-04-19T04:37:33.660Z,46
2023-04-19T04:38:49.893Z,45
2023-04-19T04:40:06.130Z,44
2023-04-19T04:41:22.374Z,40
2023-04-19T04:42:38.630Z,35
2023-04-19T04:43:54.856Z,30
2023-04-19T04:45:11.097Z,34
2023-04-19T04:46:27.000Z,51
2023-04-19T04:47:43.583Z,62
2023-04-19T04:48:58.839Z,78
2023-04-19T04:50:15.065Z,80
2023-04-19T04:51:31.306Z,85
2023-04-19T04:52:47.551Z,81
2023-04-19T04:54:03.780Z,83
2023-04-19T04:55:20.037Z,91
2023-04-19T04:56:36.263Z,91
2023-04-19T04:57:52.519Z,78
2023-04-19T04:59:08.738Z,86
2023-04-19T05:00:24.996Z,107
2023-04-19T05:01:41.233Z,117
2023-04-19T05:02:57.469Z,109
2023-04-19T05:04:13.706Z,111
2023-04-19T05:05:28.972Z,121
2023-04-19T05:06:45.193Z,152
2023-04-19T05:08:01.453Z,164
2023-04-19T05:09:17.685Z,155
2023-04-19T05:10:33.000Z,140
2023-04-19T05:11:50.157Z,127
2023-04-19T05:13:06.407Z,115
2023-04-19T05:14:22.658Z,121
2023-04-19T05:15:38.885Z,129
2023-04-19T05:16:55.109Z,145
2023-04-19T05:18:11.357Z,153
2023-04-19T05:19:27.608Z,170
2023-04-19T05:20:43.830Z,187
2023-04-19T05:21:59.110Z,194
2023-04-19T05:23:15.330Z,201
2023-04-19T05:24:31.568Z,214
2023-04-19T05:25:47.823Z,226
2023-04-19T05:27:04.052Z,245
2023-04-19T05:28:20.306Z,268
2023-04-19T05:29:36.540Z,277
2023-04-19T05:30:52.780Z,291
2023-04-19T05:32:09.009Z,300
2023-04-19T05:33:25.260Z,299
2023-04-19T05:34:41.492Z,296
2023-04-19T05:35:57.737Z,282
2023-04-19T05:37:13.969Z,257
2023-04-19T05:38:29.000Z,243
2023-04-19T05:39:45.470Z,228
2023-04-19T05:41:01.713Z,210
2023-04-19T05:42:17.934Z,226
2023-04-19T05:43:34.187Z,176
2023-04-19T05:44:50.421Z,287
2023-04-19T05:46:06.652Z,220
2023-04-19T05:47:22.908Z,223
2023-04-19T05:48:39.150Z,238
2023-04-19T05:49:55.382Z,254
2023-04-19T05:51:11.617Z,282
2023-04-19T05:52:27.858Z,294
2023-04-19T05:53:44.000Z,300
2023-04-19T05:54:59.354Z,299
2023-04-19T05:56:15.603Z,303
2023-04-19T05:57:31.840Z,311
2023-04-19T05:58:48.082Z,323
2023-04-19T06:00:04.310Z,249
2023-04-19T06:01:20.550Z,330
2023-04-19T06:02:36.784Z,292
2023-04-19T06:03:53.036Z,268
2023-04-19T06:05:09.281Z,532
2023-04-19T06:06:25.509Z,429
2023-04-19T06:07:41.744Z,220
2023-04-19T06:08:57.981Z,601
2023-04-19T06:10:14.221Z,250
2023-04-19T06:11:29.494Z,749
2023-04-19T06:12:45.736Z,521
2023-04-19T06:14:01.969Z,356
2023-04-19T06:15:18.206Z,684
2023-04-19T06:16:34.451Z,551
2023-04-19T06:17:50.692Z,568
2023-04-19T06:19:06.000Z,581
2023-04-19T06:20:23.174Z,457
2023-04-19T06:21:39.401Z,601
2023-04-19T06:22:55.649Z,692
2023-04-19T06:24:11.883Z,511
2023-04-19T06:25:28.121Z,857
2023-04-19T06:26:44.366Z,648
2023-04-19T06:27:59.636Z,309
2023-04-19T06:29:15.853Z,667
2023-04-19T06:30:32.092Z,674
2023-04-19T06:31:48.333Z,657
2023-04-19T06:33:04.574Z,643
2023-04-19T06:34:20.819Z,662
2023-04-19T06:35:37.051Z,620
2023-04-19T06:36:53.290Z,638
2023-04-19T06:38:09.553Z,637
2023-04-19T06:39:25.000Z,645
2023-04-19T06:40:42.016Z,636
2023-04-19T06:41:58.260Z,645
2023-04-19T06:43:14.497Z,631
2023-04-19T06:44:29.755Z,634
2023-04-19T06:45:45.981Z,637
2023-04-19T06:47:02.227Z,636
2023-04-19T06:48:18.475Z,631
2023-04-19T06:49:34.700Z,628
2023-04-19T06:50:50.958Z,627
2023-04-19T06:52:07.192Z,630
2023-04-19T06:53:23.434Z,625
2023-04-19T06:54:39.671Z,621
2023-04-19T06:55:55.897Z,629
2023-04-19T06:57:12.147Z,621
2023-04-19T06:58:28.398Z,629
2023-04-19T06:59:44.633Z,627
2023-04-19T07:00:59.876Z,632
2023-04-19T07:02:16.133Z,624
2023-04-19T07:03:32.357Z,628
2023-04-19T07:04:48.608Z,628
2023-04-19T07:06:04.832Z,640
2023-04-19T07:07:21.075Z,632
2023-04-19T07:08:36.354Z,618
2023-04-19T07:09:52.594Z,635
2023-04-19T07:11:08.826Z,643
2023-04-19T07:12:25.072Z,632
2023-04-19T07:13:41.308Z,634
2023-04-19T07:14:57.555Z,640
2023-04-19T07:16:13.784Z,647
2023-04-19T07:17:30.000Z,642
2023-04-19T07:18:46.263Z,648
2023-04-19T07:20:02.494Z,646
2023-04-19T07:21:18.731Z,649
2023-04-19T07:22:34.987Z,652
2023-04-19T07:23:51.226Z,648
2023-04-19T07:25:06.478Z,643
2023-04-19T07:26:22.709Z,651
2023-04-19T07:27:38.965Z,648
2023-04-19T07:28:55.198Z,652
2023-04-19T07:30:11.428Z,648
2023-04-19T07:31:27.666Z,642
2023-04-19T07:32:43.917Z,655
2023-04-19T07:34:00.164Z,647
2023-04-19T07:35:16.396Z,635
2023-04-19T07:36:32.000Z,634
2023-04-19T07:37:48.876Z,641
2023-04-19T07:39:05.109Z,646
2023-04-19T07:40:21.366Z,648
2023-04-19T07:41:36.605Z,641
2023-04-19T07:42:52.851Z,646
2023-04-19T07:44:09.095Z,644
2023-04-19T07:45:25.330Z,648
2023-04-19T07:46:41.576Z,647
2023-04-19T07:47:57.808Z,632
2023-04-19T07:49:14.048Z,651
2023-04-19T07:50:30.298Z,636
2023-04-19T07:51:46.539Z,640
2023-04-19T07:53:02.769Z,654
2023-04-19T07:54:19.006Z,635
2023-04-19T07:55:35.244Z,645
2023-04-19T07:56:51.497Z,655
2023-04-19T07:58:06.749Z,635
2023-04-19T07:59:22.987Z,642
2023-04-19T08:00:39.240Z,645
2023-04-19T08:01:55.466Z,653
2023-04-19T08:03:11.725Z,644
2023-04-19T08:04:27.945Z,651
2023-04-19T08:05:44.188Z,646
2023-04-19T08:07:00.435Z,666
2023-04-19T08:08:16.666Z,651
2023-04-19T08:09:32.903Z,672
2023-04-19T08:10:49.145Z,654
2023-04-19T08:12:05.385Z,660
2023-04-19T08:13:21.629Z,651
2023-04-19T08:14:36.885Z,675
2023-04-19T08:15:53.122Z,654
2023-04-19T08:17:09.364Z,665
2023-04-19T08:18:25.609Z,673
2023-04-19T08:19:41.848Z,666
2023-04-19T08:20:58.086Z,675
2023-04-19T08:22:14.317Z,679
2023-04-19T08:23:30.565Z,659
2023-04-19T08:24:46.796Z,714
2023-04-19T08:26:03.052Z,673
2023-04-19T08:27:19.280Z,683
2023-04-19T08:28:35.523Z,684
2023-04-19T08:29:51.754Z,680
2023-04-19T08:31:07.010Z,693
2023-04-19T08:32:23.257Z,694
2023-04-19T08:33:39.501Z,696
2023-04-19T08:34:55.735Z,699
2023-04-19T08:36:11.987Z,707
2023-04-19T08:37:28.227Z,695
2023-04-19T08:38:44.467Z,714
2023-04-19T08:40:00.693Z,704
2023-04-19T08:41:16.927Z,722
2023-04-19T08:42:33.183Z,712
2023-04-19T08:43:49.416Z,719
2023-04-19T08:45:05.659Z,736
2023-04-19T08:46:21.893Z,729
2023-04-19T08:47:37.162Z,720
2023-04-19T08:48:53.390Z,725
2023-04-19T08:50:09.641Z,728
2023-04-19T08:51:25.864Z,751
2023-04-19T08:52:42.110Z,725
2023-04-19T08:53:58.355Z,742
2023-04-19T08:55:14.583Z,748
2023-04-19T08:56:30.829Z,731
2023-04-19T08:57:47.071Z,751
2023-04-19T08:59:03.323Z,758
2023-04-19T09:00:19.541Z,756
2023-04-19T09:01:35.790Z,747
2023-04-19T09:02:52.024Z,757
2023-04-19T09:04:07.276Z,773
2023-04-19T09:05:23.517Z,752
2023-04-19T09:06:39.765Z,765
2023-04-19T09:07:56.019Z,767
2023-04-19T09:09:12.247Z,769
2023-04-19T09:10:28.480Z,774
2023-04-19T09:11:44.730Z,765
2023-04-19T09:13:00.969Z,778
2023-04-19T09:14:17.198Z,786
2023-04-19T09:15:33.435Z,774
2023-04-19T09:16:49.677Z,792
2023-04-19T09:18:05.924Z,777
2023-04-19T09:19:22.166Z,789
2023-04-19T09:20:37.433Z,798
2023-04-19T09:21:53.654Z,804
2023-04-19T09:23:09.894Z,808
2023-04-19T09:24:26.134Z,802
2023-04-19T09:25:42.382Z,812
2023-04-19T09:26:58.630Z,809
2023-04-19T09:28:14.866Z,812
2023-04-19T09:29:31.096Z,811
2023-04-19T09:30:47.349Z,820
2023-04-19T09:32:03.577Z,826
2023-04-19T09:33:19.829Z,842
2023-04-19T09:34:36.076Z,830
2023-04-19T09:35:52.302Z,832
2023-04-19T09:37:07.568Z,864
2023-04-19T09:38:23.791Z,840
2023-04-19T09:39:40.034Z,846
2023-04-19T09:40:56.000Z,863
2023-04-19T09:42:12.526Z,858
2023-04-19T09:43:28.762Z,885
2023-04-19T09:44:45.000Z,854
2023-04-19T09:46:01.243Z,899
2023-04-19T09:47:17.485Z,866
2023-04-19T09:48:33.727Z,912
2023-04-19T09:49:49.977Z,939
2023-04-19T09:51:06.202Z,886
2023-04-19T09:52:22.434Z,922
2023-04-19T09:53:37.708Z,888
2023-04-19T09:54:53.939Z,881
2023-04-19T09:56:10.182Z,1005
2023-04-19T09:57:26.415Z,957
2023-04-19T09:58:42.658Z,962
2023-04-19T09:59:58.906Z,906
2023-04-19T10:01:15.135Z,1574
2023-04-19T10:02:31.388Z,358
2023-04-19T10:03:47.621Z,1646
2023-04-19T10:05:03.862Z,616
2023-04-19T10:06:20.107Z,1051
2023-04-19T10:07:36.344Z,991
2023-04-19T10:08:52.584Z,1043
2023-04-19T10:10:07.847Z,1153
2023-04-19T10:11:24.085Z,1200
2023-04-19T10:12:40.325Z,1240
2023-04-19T10:13:56.556Z,1265
2023-04-19T10:15:12.787Z,1192
2023-04-19T10:16:29.036Z,1086
2023-04-19T10:17:45.272Z,1813
2023-04-19T10:19:01.526Z,1944
2023-04-19T10:20:17.000Z,2308
2023-04-19T10:21:34.010Z,2514
2023-04-19T10:22:50.227Z,2594
2023-04-19T10:24:06.490Z,2599
2023-04-19T10:25:22.716Z,2649
2023-04-19T10:26:37.983Z,2676
2023-04-19T10:27:54.214Z,2673
2023-04-19T10:29:10.000Z,2786
2023-04-19T10:30:26.000Z,2846
2023-04-19T10:31:42.934Z,2733
2023-04-19T10:32:59.171Z,4117
2023-04-19T10:34:15.416Z,778
2023-04-19T10:35:31.652Z,3536
2023-04-19T10:36:47.888Z,1181
2023-04-19T10:38:04.134Z,827
2023-04-19T10:39:20.368Z,2226
2023-04-19T10:40:36.000Z,751
2023-04-19T10:41:52.852Z,4260
2023-04-19T10:43:08.100Z,3911
2023-04-19T10:44:24.325Z,1888
2023-04-19T10:45:40.582Z,741
2023-04-19T10:46:56.819Z,4647
2023-04-19T10:48:13.053Z,1945
2023-04-19T10:49:29.295Z,596
2023-04-19T10:50:45.000Z,1992
2023-04-19T10:52:01.770Z,955
2023-04-19T10:53:18.008Z,2751
2023-04-19T10:54:34.248Z,3437
2023-04-19T10:55:50.499Z,4816
2023-04-19T10:57:06.727Z,855
2023-04-19T10:58:22.975Z,3676
2023-04-19T10:59:38.238Z,2904
2023-04-19T11:00:54.473Z,3561
2023-04-19T11:02:10.713Z,4621
2023-04-19T11:03:26.940Z,703
2023-04-19T11:04:43.172Z,1439
2023-04-19T11:05:59.424Z,4796
2023-04-19T11:07:15.662Z,828
2023-04-19T11:08:31.905Z,4824
2023-04-19T11:09:48.140Z,4415
2023-04-19T11:11:04.389Z,861
2023-04-19T11:12:20.624Z,5469
2023-04-19T11:13:36.851Z,2451
2023-04-19T11:14:53.102Z,1809
2023-04-19T11:16:08.359Z,1564
2023-04-19T11:17:24.608Z,1519
2023-04-19T11:18:40.827Z,1450
2023-04-19T11:19:57.000Z,1213
2023-04-19T11:21:13.318Z,1156
2023-04-19T11:22:29.547Z,1101
2023-04-19T11:23:44.818Z,1166
2023-04-19T11:25:01.058Z,1173
2023-04-19T11:26:17.283Z,1172
2023-04-19T11:27:33.538Z,1220
2023-04-19T11:28:49.776Z,1198
2023-04-19T11:30:06.013Z,1243
2023-04-19T11:31:22.245Z,1815
2023-04-19T11:32:38.493Z,1882
2023-04-19T11:33:54.741Z,1447
2023-04-19T11:35:10.979Z,1125
2023-04-19T11:36:27.213Z,1137
2023-04-19T11:37:43.453Z,7671
2023-04-19T11:38:59.701Z,3650
2023-04-19T11:40:14.945Z,2665
2023-04-19T11:41:31.177Z,2354
2023-04-19T11:42:47.432Z,1977
2023-04-19T11:44:03.668Z,1530
2023-04-19T11:45:19.910Z,1836
2023-04-19T11:46:36.150Z,1220
2023-04-19T11:47:52.397Z,939
2023-04-19T11:49:08.616Z,929
2023-04-19T11:50:24.871Z,704
2023-04-19T11:51:41.109Z,723
2023-04-19T11:52:57.347Z,1015
2023-04-19T11:54:13.585Z,1161
2023-04-19T11:55:29.817Z,1020
2023-04-19T11:56:45.082Z,997
2023-04-19T11:58:01.310Z,1006
2023-04-19T11:59:17.562Z,1085
2023-04-19T12:00:33.792Z,1147
2023-04-19T12:01:50.043Z,1113
2023-04-19T12:03:06.000Z,1133
2023-04-19T12:04:22.515Z,1090
2023-04-19T12:05:38.753Z,986
2023-04-19T12:06:54.996Z,1159
2023-04-19T12:08:11.245Z,2376
2023-04-19T12:09:27.478Z,9393
2023-04-19T12:10:43.713Z,4069
2023-04-19T12:11:59.975Z,1611
2023-04-19T12:13:15.203Z,6170
2023-04-19T12:14:31.457Z,6976
2023-04-19T12:15:47.684Z,9291
2023-04-19T12:17:03.930Z,4580
2023-04-19T12:18:20.163Z,2408
2023-04-19T12:19:36.428Z,2223
2023-04-19T12:20:52.650Z,2010
2023-04-19T12:22:08.881Z,1801
2023-04-19T12:23:25.131Z,1827
2023-04-19T12:24:41.373Z,1685
2023-04-19T12:25:57.600Z,1768
2023-04-19T12:27:13.860Z,1761
2023-04-19T12:28:30.092Z,1750
2023-04-19T12:29:45.352Z,1040
2023-04-19T12:31:01.575Z,5625
2023-04-19T12:32:17.820Z,2383
2023-04-19T12:33:34.063Z,2367
2023-04-19T12:34:50.292Z,1900
2023-04-19T12:36:06.540Z,1654
2023-04-19T12:37:22.778Z,1452
2023-04-19T12:38:39.024Z,1292
2023-04-19T12:39:55.254Z,1256
2023-04-19T12:41:11.492Z,1224
2023-04-19T12:42:27.744Z,1225
2023-04-19T12:43:43.984Z,1219
2023-04-19T12:45:00.216Z,1213
2023-04-19T12:46:15.462Z,1228
2023-04-19T12:47:31.730Z,1230
2023-04-19T12:48:47.960Z,1437
2023-04-19T12:50:04.182Z,1429
2023-04-19T12:51:20.434Z,1643
2023-04-19T12:52:36.680Z,1835
2023-04-19T12:53:52.920Z,1796
2023-04-19T12:55:09.148Z,1987
2023-04-19T12:56:25.386Z,1716
2023-04-19T12:57:41.640Z,1797
2023-04-19T12:58:57.865Z,5105
2023-04-19T13:00:14.120Z,7188
2023-04-19T13:01:30.358Z,5788
2023-04-19T13:02:45.613Z,7146
2023-04-19T13:04:01.000Z,6987
2023-04-19T13:05:18.097Z,7254
2023-04-19T13:06:34.319Z,7281
2023-04-19T13:07:50.560Z,7153
2023-04-19T13:09:06.802Z,7003
2023-04-19T13:10:23.040Z,6766
2023-04-19T13:11:39.290Z,9406
2023-04-19T13:12:55.523Z,1188
2023-04-19T13:14:11.759Z,1989
2023-04-19T13:15:28.004Z,10162
2023-04-19T13:16:44.238Z,3836
2023-04-19T13:18:00.482Z,3176
2023-04-19T13:19:15.746Z,2943
2023-04-19T13:20:31.961Z,2956
2023-04-19T13:21:48.213Z,2320
2023-04-19T13:23:04.449Z,1987
2023-04-19T13:24:20.690Z,1780
2023-04-19T13:25:36.920Z,1622
2023-04-19T13:26:53.181Z,1504
2023-04-19T13:28:09.404Z,1334
2023-04-19T13:29:25.636Z,1226
2023-04-19T13:30:41.885Z,1162
2023-04-19T13:31:58.111Z,1172
2023-04-19T13:33:14.351Z,1302
2023-04-19T13:34:30.593Z,1491
2023-04-19T13:35:45.846Z,1243
2023-04-19T13:37:02.000Z,1185
2023-04-19T13:38:18.346Z,1060
2023-04-19T13:39:34.576Z,839
2023-04-19T13:40:50.805Z,657
2023-04-19T13:42:07.046Z,484
2023-04-19T13:43:23.278Z,308
2023-04-19T13:44:39.537Z,310
2023-04-19T13:45:55.757Z,366
2023-04-19T13:47:12.011Z,396
2023-04-19T13:48:28.248Z,481
2023-04-19T13:49:44.493Z,555
2023-04-19T13:51:00.716Z,853
2023-04-19T13:52:15.976Z,3468
2023-04-19T13:53:32.231Z,3086
2023-04-19T13:54:48.463Z,7031
2023-04-19T13:56:04.683Z,1160
2023-04-19T13:57:20.931Z,2175
2023-04-19T13:58:37.161Z,6562
2023-04-19T13:59:53.420Z,8985
2023-04-19T14:01:09.646Z,7825
2023-04-19T14:02:25.000Z,3592
2023-04-19T14:03:42.132Z,5182
2023-04-19T14:04:58.374Z,2639
2023-04-19T14:06:14.616Z,5585
2023-04-19T14:07:30.853Z,5455
2023-04-19T14:08:46.088Z,9210
2023-04-19T14:10:02.339Z,1847
2023-04-19T14:11:18.565Z,6428
2023-04-19T14:12:34.806Z,7235
2023-04-19T14:13:51.060Z,4924
2023-04-19T14:15:07.294Z,7171
2023-04-19T14:16:23.521Z,4290
2023-04-19T14:17:39.764Z,4343
2023-04-19T14:18:56.011Z,3603
2023-04-19T14:20:12.247Z,2349
2023-04-19T14:21:28.478Z,1930
2023-04-19T14:22:44.718Z,1611
2023-04-19T14:24:00.951Z,1416
2023-04-19T14:25:16.225Z,1519
2023-04-19T14:26:32.444Z,1269
2023-04-19T14:27:48.699Z,1848
2023-04-19T14:29:04.922Z,956
2023-04-19T14:30:21.176Z,2610
2023-04-19T14:31:37.403Z,4584
2023-04-19T14:32:53.651Z,2397
2023-04-19T14:34:09.895Z,1511
2023-04-19T14:35:26.128Z,1097
2023-04-19T14:36:42.369Z,974
2023-04-19T14:37:58.609Z,830
2023-04-19T14:39:14.831Z,748
2023-04-19T14:40:31.085Z,625
2023-04-19T14:41:46.345Z,587
2023-04-19T14:43:02.000Z,614
2023-04-19T14:44:18.812Z,639
2023-04-19T14:45:35.075Z,585
2023-04-19T14:46:51.297Z,467
2023-04-19T14:48:07.524Z,325
2023-04-19T14:49:23.772Z,211
2023-04-19T14:50:40.018Z,153
2023-04-19T14:51:56.244Z,125
2023-04-19T14:53:12.495Z,127
2023-04-19T14:54:28.720Z,121
2023-04-19T14:55:44.960Z,109
2023-04-19T14:57:01.198Z,105
2023-04-19T14:58:16.452Z,115
2023-04-19T14:59:32.718Z,144
2023-04-19T15:00:48.931Z,158
2023-04-19T15:02:05.187Z,176
2023-04-19T15:03:21.434Z,210
2023-04-19T15:04:37.669Z,235
2023-04-19T15:05:53.893Z,244
2023-04-19T15:07:10.131Z,264
2023-04-19T15:08:26.374Z,266
2023-04-19T15:09:42.619Z,277
2023-04-19T15:10:58.866Z,281
2023-04-19T15:12:15.106Z,272
2023-04-19T15:13:31.341Z,267
2023-04-19T15:14:46.592Z,251
2023-04-19T15:16:02.000Z,226
2023-04-19T15:17:19.077Z,225
2023-04-19T15:18:35.307Z,228
2023-04-19T15:19:51.546Z,246
2023-04-19T15:21:07.810Z,269
2023-04-19T15:22:24.028Z,285
2023-04-19T15:23:40.290Z,300
2023-04-19T15:24:56.516Z,326
2023-04-19T15:26:12.749Z,328
2023-04-19T15:27:28.990Z,317
2023-04-19T15:28:45.226Z,310
2023-04-19T15:30:01.475Z,332
2023-04-19T15:31:16.725Z,391
2023-04-19T15:32:32.968Z,454
2023-04-19T15:33:49.203Z,504
2023-04-19T15:35:05.438Z,524
2023-04-19T15:36:21.686Z,552
2023-04-19T15:37:37.922Z,554
2023-04-19T15:38:53.187Z,525
2023-04-19T15:40:09.450Z,514
2023-04-19T15:41:25.663Z,534
2023-04-19T15:42:41.919Z,559
2023-04-19T15:43:58.147Z,523
2023-04-19T15:45:14.395Z,798
2023-04-19T15:46:30.634Z,915
2023-04-19T15:47:46.877Z,1022
2023-04-19T15:49:03.101Z,1226
2023-04-19T15:50:19.350Z,1074
2023-04-19T15:51:35.583Z,1276
2023-04-19T15:52:51.840Z,1260
2023-04-19T15:54:08.088Z,1052
2023-04-19T15:55:23.327Z,1003
2023-04-19T15:56:39.561Z,1022
2023-04-19T15:57:55.798Z,952
2023-04-19T15:59:12.054Z,840
2023-04-19T16:00:28.288Z,1023
2023-04-19T16:01:44.521Z,705
2023-04-19T16:03:00.789Z,545
2023-04-19T16:04:17.010Z,1200
2023-04-19T16:05:33.240Z,861
2023-04-19T16:06:49.498Z,1485
2023-04-19T16:08:05.732Z,1140
2023-04-19T16:09:21.959Z,833
2023-04-19T16:10:38.216Z,947
2023-04-19T16:11:53.466Z,659
2023-04-19T16:13:09.726Z,790
2023-04-19T16:14:25.936Z,961
2023-04-19T16:15:42.180Z,1534
2023-04-19T16:16:58.423Z,2412
2023-04-19T16:18:14.679Z,2163
2023-04-19T16:19:30.902Z,2524
2023-04-19T16:20:47.144Z,1716
2023-04-19T16:22:03.378Z,1112
2023-04-19T16:23:19.634Z,1827
2023-04-19T16:24:35.854Z,1649
2023-04-19T16:25:52.104Z,841
2023-04-19T16:27:08.361Z,1140
2023-04-19T16:28:23.599Z,1517
2023-04-19T16:29:39.831Z,1193
2023-04-19T16:30:56.077Z,954
2023-04-19T16:32:12.318Z,931
2023-04-19T16:33:28.553Z,744
2023-04-19T16:34:44.799Z,628
2023-04-19T16:36:01.043Z,593
2023-04-19T16:37:17.285Z,584
2023-04-19T16:38:33.522Z,607
2023-04-19T16:39:49.764Z,626
2023-04-19T16:41:06.008Z,693
2023-04-19T16:42:22.232Z,628
2023-04-19T16:43:38.476Z,641
2023-04-19T16:44:53.730Z,482
2023-04-19T16:46:09.981Z,464
2023-04-19T16:47:26.218Z,399
2023-04-19T16:48:42.446Z,247
2023-04-19T16:49:58.691Z,212
2023-04-19T16:51:14.925Z,278
2023-04-19T16:52:31.166Z,281
2023-04-19T16:53:47.411Z,365
2023-04-19T16:55:03.655Z,375
2023-04-19T16:56:19.908Z,351
2023-04-19T16:57:36.151Z,291
2023-04-19T16:58:52.392Z,215
2023-04-19T17:00:08.604Z,147
2023-04-19T17:01:23.866Z,115
2023-04-19T17:02:40.125Z,108
2023-04-19T17:03:56.345Z,97
2023-04-19T17:05:12.613Z,87
2023-04-19T17:06:28.822Z,85
2023-04-19T17:07:45.077Z,78
2023-04-19T17:09:01.329Z,81
2023-04-19T17:10:17.560Z,74
2023-04-19T17:11:33.808Z,66
2023-04-19T17:12:50.038Z,70
2023-04-19T17:14:06.276Z,70
2023-04-19T17:15:22.502Z,58
2023-04-19T17:16:38.753Z,48
2023-04-19T17:17:54.021Z,43
2023-04-19T17:19:10.242Z,52
2023-04-19T17:20:26.497Z,73
2023-04-19T17:21:42.729Z,101
2023-04-19T17:22:58.964Z,128
2023-04-19T17:24:15.217Z,150
2023-04-19T17:25:31.453Z,139
2023-04-19T17:26:47.685Z,103
2023-04-19T17:28:03.924Z,82
2023-04-19T17:29:20.174Z,65
2023-04-19T17:30:36.415Z,57
2023-04-19T17:31:52.652Z,48
2023-04-19T17:33:08.879Z,37
2023-04-19T17:34:24.172Z,33
2023-04-19T17:35:40.382Z,28
2023-04-19T17:36:56.000Z,32
2023-04-19T17:38:12.857Z,31
2023-04-19T17:39:29.120Z,28